»·PEaware :: N180D KSBA-KPMD

N180D :: KSBA-KPMD

FLIGHT INFORMATION

Flight Status: Arrived
Operator: Privately registered:
United States
More flights under this callsign
Pilot: Augie L. (30054)
Aircraft: CESSNA 172 SKYHAWK
(C172)
More flights by this aircraft type
Origin: KSBA Santa Barbara Mun
United States
Destination: KPMD Palmdale AF Plant 42
United States
More flights between these airports :: More routes between these airports
Route: FIM V386 PMD
File this flight plan on PilotEdge
Remarks:
Altitude:
(Current/Filed)
11,000ft
Speed:
(Current/Filed)
110kts
Departed: 28-Aug-21 10:33 AM
Arrived: 28-Aug-21 11:29 AM
Distance/Time
Traveled:
88nm/0:55
Distance/Time
To Go:
Arrived

Flight Plot

Page will automatically refresh every two minutes.

Flight plan parsing failed; only flown route is shown


Map Options




Map Legend


Flown Route
Filed Route
Departure Airport
Arrival Airport
Navaid (VOR, NDB)
Fix

Horizontal Profiles

Position Reports

Time Latitude Longitude Heading Altitude Ground
Speed
28-Aug-21 10:20 34.432570 -119.835085 71 13ft 0kts
28-Aug-21 10:21 34.432570 -119.835085 71 13ft 0kts
28-Aug-21 10:22 34.432570 -119.835085 71 13ft 0kts
28-Aug-21 10:23 34.432570 -119.835085 71 13ft 0kts
28-Aug-21 10:24 34.432570 -119.835085 71 13ft 0kts
28-Aug-21 10:25 34.432570 -119.835085 71 13ft 0kts
28-Aug-21 10:26 34.432570 -119.835085 71 13ft 0kts
28-Aug-21 10:27 34.432594 -119.834971 87 13ft 5kts
28-Aug-21 10:28 34.430825 -119.839436 246 13ft 1kts
28-Aug-21 10:29 34.430662 -119.839651 173 13ft 0kts
28-Aug-21 10:30 34.430662 -119.839651 173 13ft 0kts
28-Aug-21 10:31 34.430493 -119.839797 254 13ft 2kts
28-Aug-21 10:32 34.418322 -119.836733 164 347ft 73kts
28-Aug-21 10:33 34.399247 -119.831009 163 1099ft 81kts
28-Aug-21 10:34 34.377192 -119.823278 161 1922ft 85kts
28-Aug-21 10:35 34.354345 -119.814007 159 2675ft 90kts
28-Aug-21 10:36 34.330314 -119.803357 158 3379ft 93kts
28-Aug-21 10:37 34.305901 -119.792708 162 4078ft 94kts
28-Aug-21 10:38 34.282155 -119.780857 147 4766ft 92kts
28-Aug-21 10:39 34.261155 -119.764003 147 5453ft 89kts
28-Aug-21 10:40 34.241325 -119.747810 146 6134ft 83kts
28-Aug-21 10:41 34.224190 -119.730984 129 6806ft 77kts
28-Aug-21 10:42 34.214400 -119.709699 119 7426ft 71kts
28-Aug-21 10:43 34.213994 -119.685658 82 7955ft 80kts
28-Aug-21 10:44 34.220883 -119.653066 82 8001ft 113kts
28-Aug-21 10:45 34.227369 -119.619880 84 8513ft 94kts
28-Aug-21 10:46 34.232878 -119.590409 85 9084ft 85kts
28-Aug-21 10:47 34.237876 -119.563154 86 9585ft 83kts
28-Aug-21 10:48 34.242827 -119.535962 86 10039ft 83kts
28-Aug-21 10:49 34.247795 -119.508649 86 10474ft 83kts
28-Aug-21 10:50 34.252753 -119.481345 87 10891ft 83kts
28-Aug-21 10:51 34.258328 -119.450106 84 11012ft 113kts
28-Aug-21 10:52 34.265608 -119.410011 83 10997ft 124kts
28-Aug-21 10:53 34.272987 -119.369238 84 10997ft 121kts
28-Aug-21 10:54 34.280126 -119.329538 84 11000ft 122kts
28-Aug-21 10:55 34.287439 -119.288768 84 10999ft 124kts
28-Aug-21 10:56 34.294792 -119.247726 84 10998ft 125kts
28-Aug-21 10:57 34.302189 -119.206341 84 10997ft 125kts
28-Aug-21 10:58 34.309531 -119.165176 84 10995ft 125kts
28-Aug-21 11:00 34.316878 -119.123894 84 10993ft 125kts
28-Aug-21 11:01 34.324212 -119.082602 84 10992ft 125kts
28-Aug-21 11:02 34.331512 -119.041415 84 10990ft 125kts
28-Aug-21 11:03 34.338782 -119.000314 84 10990ft 125kts
28-Aug-21 11:04 34.346077 -118.958981 84 10989ft 125kts
28-Aug-21 11:05 34.353414 -118.917362 84 10988ft 124kts
28-Aug-21 11:06 34.361693 -118.876536 74 10992ft 127kts
28-Aug-21 11:07 34.375446 -118.836779 73 10990ft 128kts
28-Aug-21 11:08 34.389285 -118.796869 73 10990ft 128kts
28-Aug-21 11:09 34.403152 -118.756847 73 10989ft 129kts
28-Aug-21 11:10 34.417067 -118.716646 73 10989ft 129kts
28-Aug-21 11:11 34.431008 -118.676324 73 10990ft 130kts
28-Aug-21 11:12 34.444813 -118.635920 74 10993ft 130kts
28-Aug-21 11:13 34.457558 -118.594821 73 10996ft 130kts
28-Aug-21 11:14 34.471384 -118.554079 73 10980ft 128kts
28-Aug-21 11:15 34.484853 -118.514788 73 10989ft 124kts
28-Aug-21 11:16 34.498087 -118.476190 73 11000ft 123kts
28-Aug-21 11:17 34.511508 -118.436933 73 10853ft 134kts
28-Aug-21 11:18 34.526526 -118.393061 72 10322ft 139kts
28-Aug-21 11:19 34.539861 -118.354056 72 9575ft 116kts
28-Aug-21 11:20 34.551606 -118.319331 79 8862ft 107kts
28-Aug-21 11:21 34.543622 -118.285676 108 8090ft 106kts
28-Aug-21 11:22 34.539535 -118.249853 98 7295ft 108kts
28-Aug-21 11:23 34.542256 -118.212579 81 6506ft 113kts
28-Aug-21 11:23 34.554457 -118.187036 53 5800ft 99kts
28-Aug-21 11:24 34.571108 -118.162119 53 5007ft 89kts
28-Aug-21 11:26 34.587419 -118.137657 53 4222ft 79kts
28-Aug-21 11:26 34.598415 -118.119378 55 3561ft 79kts
28-Aug-21 11:27 34.612059 -118.099094 52 2766ft 76kts
28-Aug-21 11:28 34.622418 -118.083173 53 2521ft 36kts
28-Aug-21 11:29 34.626962 -118.076170 51 2509ft 24kts
28-Aug-21 11:30 34.629918 -118.074154 321 2503ft 0kts

Navigation Log

Ident Type
Flight plan parsing failed, navigation log unavailable